Time;durP1;ratioP1;P1;durP2;ratioP2;P2;SDS_P1;SDS_P2;PMS_P1;PMS_P2;Temp;Humidity;BMP_temperature;BMP_pressure;BME280_temperature;BME280_humidity;BME280_pressure;Samples;Min_cycle;Max_cycle;Signal;HPM_P1;HPM_P2
2023/01/19 00:00:01;;;;;;;31.10;19.75;;;27.90;90.40;;;;;;5047351;28;20060;-53
2023/01/19 00:02:28;;;;;;;46.90;25.02;;;27.90;90.50;;;;;;5047746;28;20348;-52
2023/01/19 00:04:55;;;;;;;60.67;31.85;;;27.90;90.50;;;;;;5047451;28;20135;-57
2023/01/19 00:07:22;;;;;;;61.03;38.28;;;27.90;90.50;;;;;;5047379;28;20040;-55
2023/01/19 00:09:48;;;;;;;57.08;38.90;;;27.90;90.60;;;;;;5047402;28;20027;-54
2023/01/19 00:12:15;;;;;;;60.70;37.90;;;27.90;90.60;;;;;;5047534;28;20348;-54
2023/01/19 00:14:41;;;;;;;55.70;36.22;;;27.90;90.70;;;;;;5047236;28;20030;-55
2023/01/19 00:17:08;;;;;;;47.88;32.40;;;27.90;90.80;;;;;;5029592;28;20100;-57
2023/01/19 00:19:35;;;;;;;40.35;28.63;;;27.90;90.90;;;;;;5047462;28;20036;-53
2023/01/19 00:22:01;;;;;;;40.25;27.27;;;27.90;90.90;;;;;;5047180;28;20048;-53
2023/01/19 00:24:28;;;;;;;34.10;25.30;;;27.80;90.90;;;;;;5047117;28;20187;-57
2023/01/19 00:26:54;;;;;;;41.58;26.13;;;27.80;91.00;;;;;;5046932;28;20364;-53
2023/01/19 00:29:21;;;;;;;42.17;26.00;;;27.80;90.90;;;;;;5046803;28;20025;-53
2023/01/19 00:31:47;;;;;;;32.78;24.98;;;27.90;91.00;;;;;;5047074;28;20044;-59
2023/01/19 00:34:14;;;;;;;36.47;23.00;;;27.80;90.90;;;;;;5046901;28;20048;-53
2023/01/19 00:36:41;;;;;;;31.55;21.42;;;27.80;90.80;;;;;;5046902;28;20290;-54
2023/01/19 00:39:08;;;;;;;26.50;19.10;;;27.80;90.80;;;;;;5047074;28;20072;-54
2023/01/19 00:44:19;;;;;;;28.17;19.13;;;27.80;90.70;;;;;;5046865;28;20075;-54
2023/01/19 00:46:45;;;;;;;25.08;18.67;;;27.80;90.70;;;;;;5046823;28;20036;-58
2023/01/19 00:49:12;;;;;;;26.90;18.63;;;27.80;90.60;;;;;;5046830;28;20217;-58
2023/01/19 00:51:39;;;;;;;33.78;21.83;;;27.80;90.60;;;;;;5046057;28;20217;-53
2023/01/19 00:54:09;;;;;;;35.92;22.02;;;27.80;90.60;;;;;;5046465;28;20049;-53
2023/01/19 00:56:38;;;;;;;32.38;19.60;;;27.60;90.30;;;;;;5028798;28;20293;-55
2023/01/19 00:59:05;;;;;;;28.23;20.08;;;27.50;90.50;;;;;;5046597;28;20277;-51
2023/01/19 01:01:31;;;;;;;33.17;21.08;;;27.30;90.60;;;;;;5046377;28;20326;-51
2023/01/19 01:03:58;;;;;;;33.67;22.38;;;27.30;90.80;;;;;;5046244;28;20297;-56
2023/01/19 01:06:28;;;;;;;36.97;24.88;;;27.10;90.90;;;;;;5045853;28;20345;-55
2023/01/19 01:08:55;;;;;;;35.40;21.98;;;27.00;90.90;;;;;;5045707;28;20042;-60
2023/01/19 01:11:23;;;;;;;33.80;22.33;;;27.00;91.00;;;;;;5045291;28;20022;-55
2023/01/19 01:13:49;;;;;;;29.58;21.30;;;27.00;91.00;;;;;;5032622;28;20034;-54
2023/01/19 01:16:16;;;;;;;27.98;19.95;;;27.10;91.00;;;;;;5046063;28;20360;-57
2023/01/19 01:18:43;;;;;;;32.78;22.33;;;27.10;90.80;;;;;;5021298;28;20037;-54
2023/01/19 01:21:11;;;;;;;33.63;22.77;;;27.20;90.70;;;;;;5045757;28;20079;-54
2023/01/19 01:23:38;;;;;;;37.38;25.15;;;27.20;90.70;;;;;;5046184;28;20070;-53
2023/01/19 01:26:05;;;;;;;49.22;29.10;;;27.30;90.50;;;;;;5046164;28;20054;-55
2023/01/19 01:28:32;;;;;;;46.72;24.70;;;27.30;90.40;;;;;;5046262;28;20037;-55
2023/01/19 01:31:01;;;;;;;38.55;24.27;;;27.40;90.30;;;;;;5028377;28;20025;-52
2023/01/19 01:33:28;;;;;;;35.90;22.92;;;27.40;90.20;;;;;;5046014;28;20037;-53
2023/01/19 01:35:56;;;;;;;29.67;20.15;;;27.40;90.10;;;;;;5040108;28;20028;-54
2023/01/19 01:38:23;;;;;;;28.45;19.23;;;27.40;90.00;;;;;;5046259;28;20049;-53
2023/01/19 01:40:49;;;;;;;28.55;17.33;;;27.40;90.00;;;;;;5045242;28;20056;-57
2023/01/19 01:43:19;;;;;;;27.55;15.90;;;27.40;89.60;;;;;;5045813;28;20219;-55
2023/01/19 01:45:49;;;;;;;25.63;14.60;;;27.40;89.50;;;;;;5045651;28;20047;-55
2023/01/19 01:48:26;;;;;;;18.73;12.80;;;27.50;89.40;;;;;;5023781;28;20089;-56
2023/01/19 01:51:42;;;;;;;22.27;12.98;;;27.40;89.30;;;;;;5037566;28;20187;-56
2023/01/19 01:54:18;;;;;;;29.80;12.65;;;27.40;88.80;;;;;;5018587;28;20041;-54
2023/01/19 01:57:02;;;;;;;16.42;10.88;;;27.40;88.80;;;;;;5042573;28;20096;-57
2023/01/19 01:59:40;;;;;;;17.63;10.75;;;27.40;88.60;;;;;;5040270;28;20029;-55
2023/01/19 02:05:05;;;;;;;15.60;10.40;;;27.40;88.70;;;;;;5045704;28;20063;-53
2023/01/19 02:13:33;;;;;;;15.48;9.48;;;27.40;87.70;;;;;;5025369;28;20057;-56
2023/01/19 02:16:04;;;;;;;14.80;9.07;;;27.40;87.50;;;;;;5025451;28;20021;-54
2023/01/19 02:18:31;;;;;;;18.33;9.73;;;27.40;87.40;;;;;;5025248;28;20033;-54
2023/01/19 02:21:46;;;;;;;15.35;9.23;;;27.40;87.30;;;;;;5025161;28;20332;-54
2023/01/19 02:24:13;;;;;;;16.75;9.35;;;27.40;87.30;;;;;;4972383;28;20051;-54
2023/01/19 02:26:43;;;;;;;16.58;9.60;;;27.40;87.20;;;;;;5025569;28;20033;-54
2023/01/19 02:29:15;;;;;;;14.77;8.60;;;27.40;87.10;;;;;;5030049;28;20017;-56
2023/01/19 02:31:45;;;;;;;11.85;8.60;;;27.40;87.00;;;;;;5044615;28;20256;-56
2023/01/19 02:34:16;;;;;;;14.68;8.48;;;27.40;86.90;;;;;;5026579;28;20037;-52
2023/01/19 02:37:06;;;;;;;18.52;8.88;;;27.30;86.80;;;;;;5044665;28;20037;-54
2023/01/19 02:39:52;;;;;;;18.98;9.15;;;27.30;86.80;;;;;;5027185;28;20033;-56
2023/01/19 02:42:30;;;;;;;13.40;8.45;;;27.30;86.90;;;;;;5026718;28;20148;-54
2023/01/19 02:44:57;;;;;;;15.02;8.98;;;27.30;86.80;;;;;;5040764;28;20025;-57
2023/01/19 02:47:24;;;;;;;14.68;8.02;;;27.30;86.70;;;;;;5035819;28;20037;-56
2023/01/19 02:49:59;;;;;;;14.98;9.05;;;27.30;86.70;;;;;;5046098;28;20032;-53
2023/01/19 02:52:27;;;;;;;11.68;8.27;;;27.30;86.70;;;;;;5044976;28;20056;-53
2023/01/19 02:55:05;;;;;;;12.25;8.70;;;27.30;86.70;;;;;;5045378;28;20030;-53
2023/01/19 02:58:06;;;;;;;45.28;9.63;;;27.30;86.80;;;;;;5044858;28;20026;-56
2023/01/19 03:01:00;;;;;;;20.70;8.80;;;27.30;86.70;;;;;;5044807;28;20029;-55
2023/01/19 03:04:05;;;;;;;13.65;8.10;;;27.30;86.60;;;;;;5044725;28;20072;-56
2023/01/19 03:07:10;;;;;;;14.15;8.18;;;27.30;86.60;;;;;;5044292;28;20073;-54
2023/01/19 03:09:45;;;;;;;13.18;8.57;;;27.30;86.60;;;;;;5007493;28;20034;-54
2023/01/19 03:12:47;;;;;;;17.50;9.10;;;27.20;86.50;;;;;;5024568;28;20026;-56
2023/01/19 03:15:38;;;;;;;12.82;8.98;;;27.20;86.40;;;;;;5022575;28;20042;-57
2023/01/19 03:18:09;;;;;;;18.35;8.60;;;27.20;86.40;;;;;;5024174;28;20021;-54
2023/01/19 03:20:44;;;;;;;13.45;8.48;;;27.20;86.30;;;;;;5024459;28;20033;-57
2023/01/19 03:23:13;;;;;;;12.15;8.55;;;27.20;86.40;;;;;;5024315;28;20047;-57
2023/01/19 03:25:44;;;;;;;11.93;9.15;;;27.20;86.50;;;;;;5024345;28;20048;-57
2023/01/19 03:28:12;;;;;;;15.98;9.77;;;27.20;86.40;;;;;;5024017;28;20045;-58
2023/01/19 03:30:44;;;;;;;15.63;9.10;;;27.20;86.30;;;;;;5023733;28;20063;-55
2023/01/19 03:33:44;;;;;;;16.23;9.13;;;27.20;86.90;;;;;;5024155;28;20026;-59
2023/01/19 03:36:17;;;;;;;12.52;8.77;;;27.20;86.30;;;;;;5024240;28;20097;-56
2023/01/19 03:38:46;;;;;;;14.75;9.43;;;27.20;86.20;;;;;;5040950;28;20029;-54
2023/01/19 03:41:15;;;;;;;13.32;8.52;;;27.20;86.30;;;;;;5043750;28;20089;-53
2023/01/19 03:43:43;;;;;;;10.90;8.40;;;27.10;86.20;;;;;;5043519;28;20040;-56
2023/01/19 03:46:11;;;;;;;12.93;9.10;;;27.10;86.30;;;;;;5043565;28;20085;-54
2023/01/19 03:48:46;;;;;;;12.38;8.73;;;27.10;86.30;;;;;;5043783;28;20360;-52
2023/01/19 03:51:13;;;;;;;13.38;9.32;;;27.10;86.40;;;;;;5043774;28;20025;-53
2023/01/19 03:53:41;;;;;;;14.20;8.95;;;27.10;86.40;;;;;;5043736;28;20025;-55
2023/01/19 03:56:29;;;;;;;16.73;9.05;;;27.10;86.40;;;;;;5043494;28;20037;-55
2023/01/19 03:58:55;;;;;;;14.63;10.05;;;27.10;86.50;;;;;;5043482;28;20036;-53
2023/01/19 04:01:22;;;;;;;16.88;10.32;;;27.10;86.50;;;;;;5043737;28;20025;-56
2023/01/19 04:03:50;;;;;;;15.77;10.77;;;27.10;86.50;;;;;;5043882;28;20029;-56
2023/01/19 04:06:18;;;;;;;14.32;10.27;;;27.10;87.10;;;;;;5044069;28;20021;-55
2023/01/19 04:08:46;;;;;;;15.27;9.88;;;27.00;86.60;;;;;;5043787;28;20021;-59
2023/01/19 04:11:12;;;;;;;17.58;10.43;;;27.10;86.60;;;;;;5044111;28;20034;-53
2023/01/19 04:13:39;;;;;;;12.73;10.13;;;27.00;86.50;;;;;;5043987;28;20052;-55
2023/01/19 04:16:06;;;;;;;13.63;9.23;;;27.00;86.60;;;;;;5043590;28;20041;-56
2023/01/19 04:18:34;;;;;;;14.02;9.90;;;27.00;86.60;;;;;;5026282;28;20318;-54
2023/01/19 04:21:02;;;;;;;13.88;9.27;;;27.00;86.60;;;;;;5043776;28;20356;-54
2023/01/19 04:23:30;;;;;;;12.10;9.15;;;27.00;86.60;;;;;;5043286;28;20079;-54
2023/01/19 04:26:06;;;;;;;16.30;8.30;;;27.00;86.50;;;;;;5043557;28;20026;-53
2023/01/19 04:28:33;;;;;;;14.70;8.43;;;27.00;86.50;;;;;;5043688;28;20050;-52
2023/01/19 04:31:00;;;;;;;14.43;8.35;;;27.00;86.50;;;;;;5043770;28;20033;-59
2023/01/19 04:33:27;;;;;;;15.57;9.48;;;27.00;86.50;;;;;;5042673;28;20018;-55
2023/01/19 04:35:55;;;;;;;14.88;8.30;;;27.00;86.50;;;;;;5043745;28;20037;-54
2023/01/19 04:38:22;;;;;;;12.30;8.25;;;26.90;86.40;;;;;;5043792;28;20245;-55
2023/01/19 04:40:51;;;;;;;13.48;8.43;;;26.90;86.30;;;;;;5043256;28;20032;-56
2023/01/19 04:43:21;;;;;;;13.35;8.45;;;26.90;86.30;;;;;;5046829;28;20029;-56
2023/01/19 04:45:52;;;;;;;11.15;8.88;;;26.90;86.30;;;;;;5046912;28;20120;-54
2023/01/19 04:48:19;;;;;;;14.65;8.55;;;26.90;86.20;;;;;;5046683;28;20093;-56
2023/01/19 04:50:46;;;;;;;12.85;8.65;;;26.90;86.20;;;;;;5046871;28;20021;-53
2023/01/19 04:53:15;;;;;;;11.70;8.63;;;26.90;86.10;;;;;;5046742;28;20022;-54
2023/01/19 04:55:41;;;;;;;14.35;8.90;;;26.90;86.10;;;;;;5046712;28;20205;-54
2023/01/19 04:58:08;;;;;;;16.88;8.40;;;26.90;86.00;;;;;;5046840;28;20063;-53
2023/01/19 05:00:34;;;;;;;14.25;8.32;;;26.90;85.80;;;;;;5046489;28;20044;-56
2023/01/19 05:03:01;;;;;;;13.20;8.07;;;26.90;85.90;;;;;;5046491;28;20009;-55
2023/01/19 05:05:28;;;;;;;10.98;8.00;;;26.90;85.90;;;;;;5043421;28;20080;-54
2023/01/19 05:07:55;;;;;;;12.80;8.88;;;26.90;85.80;;;;;;5037429;28;20045;-59
2023/01/19 05:10:22;;;;;;;12.18;8.43;;;26.90;85.70;;;;;;5046305;28;20051;-54
2023/01/19 05:12:50;;;;;;;14.20;8.18;;;26.90;85.60;;;;;;5046253;28;20029;-54
2023/01/19 05:15:16;;;;;;;16.25;8.65;;;27.00;85.60;;;;;;5046212;28;20024;-57
2023/01/19 05:17:43;;;;;;;12.25;8.45;;;26.90;85.50;;;;;;5046513;28;20033;-54
2023/01/19 05:20:11;;;;;;;15.15;8.48;;;26.90;85.50;;;;;;5046533;28;20225;-53
2023/01/19 05:22:47;;;;;;;13.23;8.13;;;27.00;85.50;;;;;;5046506;28;20022;-55
2023/01/19 05:25:13;;;;;;;14.55;8.90;;;27.00;85.40;;;;;;5046347;28;20104;-55
2023/01/19 05:27:40;;;;;;;13.70;8.65;;;26.90;85.20;;;;;;5045896;28;20341;-55
2023/01/19 05:30:07;;;;;;;13.85;7.97;;;26.90;85.20;;;;;;5045835;28;20048;-55
2023/01/19 05:32:34;;;;;;;12.00;8.73;;;26.90;85.10;;;;;;5045885;28;20063;-59
2023/01/19 05:35:00;;;;;;;17.13;8.88;;;26.90;85.00;;;;;;5046056;28;20025;-54
2023/01/19 05:37:27;;;;;;;15.50;9.30;;;27.00;85.00;;;;;;5046388;28;20372;-55
2023/01/19 05:39:54;;;;;;;17.10;8.55;;;26.90;84.70;;;;;;5045599;28;20025;-54
2023/01/19 05:42:21;;;;;;;12.40;8.77;;;26.90;84.70;;;;;;5046195;28;20282;-57
2023/01/19 05:44:48;;;;;;;10.80;8.20;;;26.90;84.70;;;;;;5045631;28;20053;-56
2023/01/19 05:47:14;;;;;;;11.45;8.35;;;26.90;84.70;;;;;;5045309;28;20025;-58
2023/01/19 05:49:41;;;;;;;12.68;8.60;;;26.90;84.60;;;;;;5045702;28;20021;-57
2023/01/19 05:52:07;;;;;;;16.58;8.52;;;26.90;84.50;;;;;;5045978;28;20045;-53
2023/01/19 05:54:34;;;;;;;11.60;7.80;;;26.90;84.40;;;;;;5044731;28;20205;-56
2023/01/19 05:57:01;;;;;;;14.90;7.78;;;26.90;84.30;;;;;;5045867;28;20325;-54
2023/01/19 05:59:28;;;;;;;15.55;8.85;;;26.90;84.30;;;;;;5045499;28;20033;-55
2023/01/19 06:01:55;;;;;;;12.73;8.30;;;27.00;84.20;;;;;;5045682;28;20048;-53
2023/01/19 06:04:22;;;;;;;12.07;8.00;;;26.90;84.10;;;;;;5045376;28;20029;-56
2023/01/19 06:06:49;;;;;;;13.27;8.18;;;26.90;84.20;;;;;;5045525;28;20044;-54
2023/01/19 06:09:16;;;;;;;12.07;8.45;;;26.90;84.10;;;;;;5045151;28;20014;-58
2023/01/19 06:11:44;;;;;;;11.57;8.50;;;26.90;84.00;;;;;;5045626;28;20021;-57
2023/01/19 06:14:11;;;;;;;14.73;8.10;;;26.90;83.90;;;;;;5045165;28;20092;-63
2023/01/19 06:16:38;;;;;;;13.00;8.15;;;26.90;83.90;;;;;;5045588;28;20364;-59
2023/01/19 06:19:04;;;;;;;12.05;8.32;;;26.90;83.90;;;;;;5045065;28;20217;-57
2023/01/19 06:21:31;;;;;;;13.52;7.95;;;26.90;83.90;;;;;;5045513;28;20047;-58
2023/01/19 06:23:58;;;;;;;11.82;8.43;;;26.90;83.90;;;;;;5044762;28;20135;-57
2023/01/19 06:26:25;;;;;;;12.50;7.93;;;26.90;83.90;;;;;;5045080;28;20298;-56
2023/01/19 06:28:52;;;;;;;11.35;7.38;;;26.90;83.90;;;;;;5045138;28;20175;-58
2023/01/19 06:31:18;;;;;;;11.18;7.78;;;26.90;83.90;;;;;;5044881;28;20047;-57
2023/01/19 06:33:45;;;;;;;12.93;7.95;;;26.90;83.80;;;;;;5044731;28;20026;-56
2023/01/19 06:36:12;;;;;;;14.43;8.70;;;26.90;83.80;;;;;;5044832;28;20029;-56
2023/01/19 06:38:38;;;;;;;12.13;8.20;;;26.80;83.80;;;;;;5044555;28;20029;-53
2023/01/19 06:41:05;;;;;;;11.50;8.35;;;26.80;83.90;;;;;;5027080;28;20292;-58
2023/01/19 06:43:32;;;;;;;11.48;7.93;;;26.80;83.90;;;;;;5044760;28;20213;-54
2023/01/19 06:45:59;;;;;;;12.23;8.02;;;26.80;83.90;;;;;;5044227;28;20253;-52
2023/01/19 06:48:26;;;;;;;12.10;7.90;;;26.80;83.90;;;;;;5044768;28;20029;-56
2023/01/19 06:50:52;;;;;;;11.07;7.80;;;26.70;83.80;;;;;;5044512;28;20229;-56
2023/01/19 06:53:21;;;;;;;11.93;7.70;;;26.70;83.80;;;;;;5044336;28;20018;-57
2023/01/19 06:55:47;;;;;;;12.40;8.05;;;26.70;83.90;;;;;;5044493;28;20033;-55
2023/01/19 06:58:14;;;;;;;12.68;7.95;;;26.70;83.90;;;;;;5044358;28;20036;-60
2023/01/19 07:00:41;;;;;;;10.43;8.23;;;26.70;83.90;;;;;;5044450;28;20036;-60
2023/01/19 07:03:10;;;;;;;11.82;8.07;;;26.70;83.90;;;;;;5044363;28;20037;-55
2023/01/19 07:05:37;;;;;;;13.95;8.32;;;26.70;84.00;;;;;;5043313;28;20028;-55
2023/01/19 07:08:04;;;;;;;12.43;7.93;;;26.70;83.90;;;;;;5044137;28;20055;-58
2023/01/19 07:10:31;;;;;;;14.32;7.95;;;26.70;84.00;;;;;;5044147;28;20041;-57
2023/01/19 07:12:57;;;;;;;9.57;7.93;;;26.70;83.90;;;;;;5044405;28;20071;-57
2023/01/19 07:15:24;;;;;;;12.07;8.00;;;26.60;83.90;;;;;;5043996;28;20071;-54
2023/01/19 07:17:51;;;;;;;13.60;7.85;;;26.60;83.90;;;;;;5044144;28;20210;-55
2023/01/19 07:20:18;;;;;;;10.73;8.18;;;26.60;84.00;;;;;;5044059;28;20072;-54
2023/01/19 07:22:45;;;;;;;11.93;7.72;;;26.60;83.90;;;;;;5043912;28;20033;-56
2023/01/19 07:25:13;;;;;;;12.65;7.90;;;26.60;83.90;;;;;;5043815;28;20048;-58
2023/01/19 07:27:39;;;;;;;12.15;7.90;;;26.60;83.90;;;;;;5043649;28;20053;-56
2023/01/19 07:30:07;;;;;;;13.07;8.80;;;26.60;83.90;;;;;;5043721;28;20010;-55
2023/01/19 07:32:34;;;;;;;13.65;8.10;;;26.60;83.90;;;;;;5043845;28;20029;-55
2023/01/19 07:35:01;;;;;;;9.63;7.25;;;26.60;83.90;;;;;;5043802;28;20033;-59
2023/01/19 07:37:27;;;;;;;13.77;7.68;;;26.60;83.80;;;;;;5044088;28;20026;-57
2023/01/19 07:39:54;;;;;;;14.27;7.50;;;26.60;83.80;;;;;;5043577;28;20029;-56
2023/01/19 07:42:21;;;;;;;12.68;7.35;;;26.60;83.80;;;;;;5044279;28;20306;-55
2023/01/19 07:44:47;;;;;;;14.20;7.55;;;26.60;83.70;;;;;;5044021;28;20059;-54
2023/01/19 07:47:14;;;;;;;9.32;7.13;;;26.60;83.60;;;;;;5043960;28;20068;-54
2023/01/19 07:49:41;;;;;;;11.95;7.55;;;26.60;83.40;;;;;;5043738;28;20017;-55
2023/01/19 07:52:08;;;;;;;11.93;7.47;;;26.60;83.40;;;;;;5044063;28;20201;-59
2023/01/19 07:54:35;;;;;;;10.68;7.32;;;26.60;83.40;;;;;;5043536;28;20056;-56
2023/01/19 07:57:01;;;;;;;15.30;6.80;;;26.50;83.10;;;;;;5044072;28;20101;-57
2023/01/19 07:59:29;;;;;;;12.52;7.20;;;26.60;83.00;;;;;;5043689;28;20037;-54
2023/01/19 08:01:58;;;;;;;11.63;6.88;;;26.50;82.90;;;;;;5043800;28;20218;-54
2023/01/19 08:04:28;;;;;;;12.15;6.68;;;26.50;83.00;;;;;;5043513;28;20033;-57
2023/01/19 08:06:55;;;;;;;10.35;7.22;;;26.50;82.90;;;;;;5043825;28;20092;-55
2023/01/19 08:09:23;;;;;;;13.38;6.97;;;26.50;82.90;;;;;;5043408;28;20033;-57
2023/01/19 08:11:49;;;;;;;13.07;7.38;;;26.50;82.90;;;;;;5043827;28;20030;-55
2023/01/19 08:14:16;;;;;;;11.93;7.57;;;26.50;82.90;;;;;;5043478;28;20026;-55
2023/01/19 08:16:42;;;;;;;9.80;7.30;;;26.50;82.90;;;;;;5044375;28;20040;-56
2023/01/19 08:19:09;;;;;;;10.85;6.93;;;26.50;83.00;;;;;;5047352;28;20017;-55
2023/01/19 08:21:37;;;;;;;10.55;6.78;;;26.50;82.90;;;;;;5048980;28;20082;-54
2023/01/19 08:24:04;;;;;;;10.90;6.70;;;26.50;82.80;;;;;;5047045;28;20341;-54
2023/01/19 08:26:33;;;;;;;10.32;6.97;;;26.50;82.70;;;;;;5047477;28;20029;-53
2023/01/19 08:29:03;;;;;;;9.07;6.78;;;26.50;82.80;;;;;;5047072;28;20029;-52
2023/01/19 08:31:30;;;;;;;11.13;6.75;;;26.50;82.80;;;;;;5047213;28;20096;-52
2023/01/19 08:33:56;;;;;;;9.10;6.38;;;26.50;82.80;;;;;;5047024;28;20072;-51
2023/01/19 08:36:24;;;;;;;10.52;6.78;;;26.40;82.80;;;;;;5047270;28;20044;-51
2023/01/19 08:38:51;;;;;;;11.02;7.13;;;26.40;82.70;;;;;;5046774;28;20038;-52
2023/01/19 08:41:17;;;;;;;11.55;6.70;;;26.40;82.70;;;;;;5047166;28;20042;-59
2023/01/19 08:43:44;;;;;;;9.32;6.60;;;26.40;82.70;;;;;;5046785;28;20067;-55
2023/01/19 08:46:11;;;;;;;11.10;6.82;;;26.40;82.80;;;;;;5046777;28;20026;-53
2023/01/19 08:48:37;;;;;;;10.93;6.80;;;26.30;82.80;;;;;;5046698;28;20331;-53
2023/01/19 08:51:04;;;;;;;10.95;6.28;;;26.30;82.80;;;;;;5047102;28;20033;-54
2023/01/19 08:53:31;;;;;;;12.48;7.05;;;26.30;82.90;;;;;;5046607;28;20057;-54
2023/01/19 08:56:01;;;;;;;12.13;6.53;;;26.30;82.90;;;;;;5046787;28;20332;-54
2023/01/19 08:58:27;;;;;;;7.63;6.38;;;26.30;82.90;;;;;;5046558;28;20033;-54
2023/01/19 09:00:54;;;;;;;9.63;6.72;;;26.30;82.90;;;;;;5046584;28;20026;-59
2023/01/19 09:03:24;;;;;;;10.02;6.45;;;26.20;82.90;;;;;;5046397;28;20038;-59
2023/01/19 09:05:50;;;;;;;12.60;6.30;;;26.30;82.90;;;;;;5046466;28;20033;-60
2023/01/19 09:08:18;;;;;;;12.45;6.68;;;26.30;82.90;;;;;;5046203;28;20055;-53
2023/01/19 09:10:49;;;;;;;8.27;6.10;;;26.30;82.80;;;;;;5046397;28;20037;-55
2023/01/19 09:13:17;;;;;;;11.67;6.47;;;26.30;82.60;;;;;;5046328;28;20021;-58
2023/01/19 09:15:44;;;;;;;8.13;6.20;;;26.30;82.70;;;;;;5046289;28;20299;-56
2023/01/19 09:18:14;;;;;;;9.63;6.30;;;26.30;82.70;;;;;;5046313;28;20029;-55
2023/01/19 09:20:42;;;;;;;7.72;5.70;;;26.30;82.60;;;;;;5046306;28;20186;-52
2023/01/19 09:23:14;;;;;;;8.98;6.05;;;26.30;82.60;;;;;;5046068;28;20064;-53
2023/01/19 09:25:42;;;;;;;8.38;5.90;;;26.30;82.50;;;;;;5043930;28;20302;-56
2023/01/19 09:28:11;;;;;;;10.20;5.85;;;26.30;82.50;;;;;;5042569;28;20067;-54
2023/01/19 09:30:39;;;;;;;9.65;5.90;;;26.30;82.30;;;;;;5046022;28;20096;-54
2023/01/19 09:33:10;;;;;;;10.85;6.10;;;26.30;82.30;;;;;;5043349;28;20029;-52
2023/01/19 09:35:38;;;;;;;9.50;6.47;;;26.30;82.30;;;;;;5044822;28;20314;-61
2023/01/19 09:38:06;;;;;;;9.82;6.10;;;26.30;82.30;;;;;;5045065;28;20218;-62
2023/01/19 09:40:35;;;;;;;13.07;6.60;;;26.30;82.30;;;;;;5044212;28;20309;-52
2023/01/19 09:43:30;;;;;;;9.20;6.60;;;26.30;82.30;;;;;;5043914;28;20103;-52
2023/01/19 09:46:02;;;;;;;11.30;6.13;;;26.30;82.40;;;;;;5045103;28;20206;-54
2023/01/19 09:48:50;;;;;;;;;;;26.30;82.50;;;;;;5045072;28;20028;-61
2023/01/19 09:51:23;;;;;;;9.48;6.75;;;26.30;82.40;;;;;;5039286;28;19967;-55
2023/01/19 09:53:58;;;;;;;9.50;6.32;;;26.30;82.50;;;;;;5042961;28;20044;-57
2023/01/19 09:56:26;;;;;;;11.57;6.68;;;26.30;82.60;;;;;;5045573;28;20041;-57
2023/01/19 09:58:53;;;;;;;11.32;6.55;;;26.30;82.60;;;;;;5043056;28;20405;-54
2023/01/19 10:01:48;;;;;;;9.65;6.38;;;26.30;82.70;;;;;;5045324;28;20037;-55
2023/01/19 10:04:35;;;;;;;14.50;6.38;;;26.30;82.70;;;;;;5042447;28;20040;-54
2023/01/19 10:07:08;;;;;;;9.35;5.78;;;26.30;82.80;;;;;;5045492;28;20360;-61
2023/01/19 10:09:46;;;;;;;12.18;6.50;;;26.30;82.80;;;;;;5043821;28;20029;-58
2023/01/19 10:12:31;;;;;;;9.80;6.03;;;26.30;82.70;;;;;;5037564;28;20036;-57
2023/01/19 10:15:17;;;;;;;10.27;6.28;;;26.30;82.50;;;;;;5044839;28;20043;-55
2023/01/19 10:17:53;;;;;;;10.23;6.45;;;26.30;82.60;;;;;;5044406;28;20040;-57
2023/01/19 10:20:59;;;;;;;10.90;6.30;;;26.20;82.50;;;;;;5044696;28;20061;-60
2023/01/19 10:23:43;;;;;;;7.82;5.72;;;26.30;82.50;;;;;;5011530;28;20269;-54
2023/01/19 10:26:14;;;;;;;10.40;5.70;;;26.20;82.30;;;;;;5043087;28;20075;-55
2023/01/19 10:28:42;;;;;;;10.05;5.68;;;26.20;82.20;;;;;;5044163;28;20057;-56
2023/01/19 10:31:10;;;;;;;10.45;5.43;;;26.30;82.20;;;;;;5044293;28;20075;-54
2023/01/19 10:33:38;;;;;;;9.38;5.38;;;26.20;82.00;;;;;;5043971;28;20033;-55
2023/01/19 10:36:29;;;;;;;13.88;5.93;;;26.20;81.80;;;;;;5043795;28;20069;-59
2023/01/19 10:38:57;;;;;;;8.23;5.32;;;26.20;81.60;;;;;;5040911;28;20043;-54
2023/01/19 10:41:34;;;;;;;13.25;5.65;;;26.20;81.40;;;;;;5036345;28;20034;-56
2023/01/19 10:44:03;;;;;;;12.63;5.57;;;26.20;81.40;;;;;;5044593;28;20025;-53
2023/01/19 10:46:45;;;;;;;8.98;5.32;;;26.20;81.40;;;;;;5044438;28;20104;-54
2023/01/19 10:49:35;;;;;;;;;;;26.20;81.30;;;;;;5044785;28;20310;-53
2023/01/19 10:52:04;;;;;;;13.43;5.32;;;26.20;81.30;;;;;;5045124;28;19912;-55
2023/01/19 10:54:33;;;;;;;9.17;5.50;;;26.20;81.60;;;;;;5044159;28;19905;-56
2023/01/19 10:57:07;;;;;;;9.77;5.63;;;26.10;81.60;;;;;;5026943;28;19916;-54
2023/01/19 10:59:39;;;;;;;10.65;5.35;;;26.10;81.70;;;;;;5044048;28;20060;-54
2023/01/19 11:02:26;;;;;;;21.08;5.82;;;26.10;82.10;;;;;;5044434;28;20075;-52
2023/01/19 11:04:59;;;;;;;25.83;6.32;;;26.10;82.10;;;;;;5042907;28;20071;-53
2023/01/19 11:07:25;;;;;;;28.25;6.80;;;26.10;82.30;;;;;;5036346;28;20101;-53
2023/01/19 11:10:14;;;;;;;22.58;6.88;;;26.10;82.40;;;;;;5044845;28;20025;-55
2023/01/19 11:12:53;;;;;;;17.70;6.20;;;26.10;82.60;;;;;;5043228;28;20032;-55
2023/01/19 11:15:40;;;;;;;35.67;7.70;;;26.10;82.70;;;;;;5042309;28;20037;-51
2023/01/19 11:18:07;;;;;;;38.50;8.85;;;26.10;82.70;;;;;;5038847;28;20226;-53
2023/01/19 11:20:54;;;;;;;27.35;8.18;;;26.10;83.40;;;;;;5041626;28;20033;-52
2023/01/19 11:23:52;;;;;;;27.20;8.10;;;26.00;83.90;;;;;;5043850;28;20025;-54
2023/01/19 11:26:30;;;;;;;19.17;7.15;;;25.90;83.80;;;;;;5015718;28;20079;-53
2023/01/19 11:28:58;;;;;;;21.50;6.95;;;26.00;83.80;;;;;;5044132;28;20061;-56
2023/01/19 11:31:27;;;;;;;14.88;6.68;;;26.00;83.90;;;;;;5044275;28;20063;-59
2023/01/19 11:33:59;;;;;;;20.58;7.75;;;26.00;83.80;;;;;;5044952;28;20017;-59
2023/01/19 11:36:34;;;;;;;17.58;7.93;;;26.00;83.80;;;;;;5043701;28;20041;-52
2023/01/19 11:42:19;;;;;;;20.15;8.15;;;26.00;83.70;;;;;;5044816;28;20040;-53
2023/01/19 11:45:06;;;;;;;13.82;8.20;;;26.00;83.60;;;;;;5044112;28;20348;-55
2023/01/19 11:47:51;;;;;;;14.05;8.32;;;26.00;83.50;;;;;;5043821;28;20033;-54
2023/01/19 11:50:27;;;;;;;17.90;7.93;;;26.00;83.50;;;;;;5043704;28;20292;-62
2023/01/19 11:53:05;;;;;;;16.83;8.43;;;26.10;83.60;;;;;;5047089;28;20373;-57
2023/01/19 11:55:40;;;;;;;;;;;26.10;83.40;;;;;;5047943;28;20345;-56
2023/01/19 11:58:11;;;;;;;;;;;26.10;83.50;;;;;;5048432;28;19940;-52
2023/01/19 12:00:43;;;;;;;;;;;26.10;83.50;;;;;;5048387;28;19909;-54
2023/01/19 12:03:22;;;;;;;;;;;26.10;83.70;;;;;;5048362;28;19932;-53
2023/01/19 12:06:13;;;;;;;;;;;26.10;83.90;;;;;;5048295;28;19916;-52
2023/01/19 12:08:46;;;;;;;;;;;26.10;83.80;;;;;;5048634;28;20197;-53
2023/01/19 12:11:16;;;;;;;;;;;26.10;83.80;;;;;;5048478;28;19905;-54
2023/01/19 12:13:43;;;;;;;;;;;26.10;83.70;;;;;;5048042;28;19980;-53
2023/01/19 12:16:12;;;;;;;;;;;26.10;84.00;;;;;;5048491;28;19905;-55
2023/01/19 12:18:41;;;;;;;;;;;26.10;84.30;;;;;;5047955;28;19951;-56
2023/01/19 12:21:07;;;;;;;;;;;26.10;84.20;;;;;;5048249;28;19943;-53
2023/01/19 12:23:45;;;;;;;;;;;26.20;84.20;;;;;;5048230;28;19975;-58
2023/01/19 12:26:30;;;;;;;;;;;26.10;84.00;;;;;;5047856;28;19909;-54
2023/01/19 12:29:00;;;;;;;;;;;26.20;84.20;;;;;;5027889;28;19960;-58
2023/01/19 12:31:26;;;;;;;;;;;26.20;84.20;;;;;;5028193;28;19909;-55
2023/01/19 12:33:52;;;;;;;;;;;26.20;84.20;;;;;;5028027;28;19913;-55
2023/01/19 12:36:35;;;;;;;;;;;26.30;84.10;;;;;;5043870;28;20241;-55
2023/01/19 12:41:49;;;;;;;;;;;26.30;84.20;;;;;;5026811;28;19912;-52
2023/01/19 12:44:20;;;;;;;;;;;26.30;84.90;;;;;;5028016;28;19905;-53
2023/01/19 12:46:49;;;;;;;;;;;26.30;84.50;;;;;;5043167;28;20125;-53
2023/01/19 12:49:29;;;;;;;;;;;26.30;84.70;;;;;;5027548;28;19929;-55
2023/01/19 12:52:14;;;;;;;;;;;26.30;85.00;;;;;;5027857;28;19905;-59
2023/01/19 12:54:41;;;;;;;;;;;26.40;85.30;;;;;;5027706;28;19913;-59
2023/01/19 12:57:14;;;;;;;;;;;26.40;85.60;;;;;;5028151;28;19905;-58
2023/01/19 12:59:40;;;;;;;;;;;26.40;85.80;;;;;;5026215;28;19944;-58
2023/01/19 13:02:19;;;;;;;;;;;26.40;85.90;;;;;;5028033;28;19909;-53
2023/01/19 13:05:10;;;;;;;;;;;26.40;85.90;;;;;;5024965;28;19909;-53
2023/01/19 13:07:54;;;;;;;;;;;26.40;85.90;;;;;;5025694;28;19948;-53
2023/01/19 13:10:42;;;;;;;;;;;26.40;85.90;;;;;;5027291;28;20240;-56
2023/01/19 13:13:18;;;;;;;;;;;26.40;85.90;;;;;;5025952;28;19980;-57
2023/01/19 13:15:45;;;;;;;;;;;26.40;86.10;;;;;;5027128;28;20275;-57
2023/01/19 13:18:20;;;;;;;;;;;26.50;86.30;;;;;;5027146;28;20252;-59
2023/01/19 13:20:49;;;;;;;;;;;26.40;86.40;;;;;;5027367;28;19905;-61
2023/01/19 13:23:26;;;;;;;;;;;26.50;86.40;;;;;;5027037;28;19916;-60